Kaan Kalkavan — TCTX2 — position and weather

sailwx.info

Track history (hours):
 
Tides and Currents Weather Stations Pressure Air Temp Water Temp Dewpoint Dewpoint Depression Visibility Wind Speed Wind Dir Waves Ship Positions

Kaan Kalkavan

Last reported at 2017-Oct-16 23:26 UTC. Time now 2017-Oct-17 04:20 UTC.
Position N 31°52' E 034°38'.

Length 183 m; draft 9.3 m.

Type: Ship. MMSI: 271043028.

Date/timePositionNaut miles runAvg speedWind from/ knotsBaromVisibWave heightAir tempDewpointWater temp
2017-Oct-16 23:26N 31°52' E 034°38'13 1.7
2017-Oct-16 15:23N 32°04' E 034°33'615.8
2017-Oct-16 15:00N 32°10' E 034°35'815.9
2017-Oct-16 14:31N 32°18' E 034°38'1615.6
2017-Oct-16 13:30N 32°33' E 034°43'815.5
2017-Oct-16 13:01N 32°40' E 034°45'815.5
2017-Oct-16 12:31N 32°48' E 034°47'813.5
2017-Oct-16 11:57N 32°52' E 034°54'6 0.4
2017-Oct-15 19:52N 32°50' E 035°01'3 4.7
2017-Oct-15 19:15N 32°52' E 034°59'0 0.0
2017-Oct-15 08:59N 32°52' E 034°59'612.3
2017-Oct-15 08:30N 32°53' E 034°52'  
2017-Oct-13 01:04N 36°01' E 030°31'115.1
2017-Oct-13 01:00N 36°01' E 030°30'  
2017-Oct-09 15:30N 40°56' E 028°41'612.3
2017-Oct-09 15:00N 40°51' E 028°45'815.2
2017-Oct-09 14:30N 40°47' E 028°54'815.5
2017-Oct-09 14:00N 40°45' E 029°04'815.9
2017-Oct-09 13:30N 40°44' E 029°14'813.6
2017-Oct-09 12:55N 40°44' E 029°25'512.1
2017-Oct-09 12:29N 40°45' E 029°32'613.3
2017-Oct-09 11:59N 40°45' E 029°40'4 0.3
2017-Oct-08 23:42N 40°45' E 029°35'312.2
2017-Oct-08 23:29N 40°45' E 029°31'610.5
2017-Oct-08 22:53N 40°44' E 029°23'4 9.2
2017-Oct-08 22:30N 40°43' E 029°19'816.8
2017-Oct-08 22:00N 40°41' E 029°08'917.5
2017-Oct-08 21:29N 40°39' E 028°56'13 6.9
2017-Oct-08 19:32N 40°26' E 029°01'112.5
2017-Oct-08 19:29N 40°26' E 029°02'2 0.8
2017-Oct-08 16:26N 40°25' E 029°05'0 0.0
2017-Oct-08 08:53N 40°25' E 029°05'2 0.2
2017-Oct-07 21:55N 40°27' E 029°04'  
Track history (hours):
 
Tides and Currents Weather Stations Pressure Air Temp Water Temp Dewpoint Dewpoint Depression Visibility Wind Speed Wind Dir Waves Ship Positions

Kaan Kalkavan

Last reported at 2017-Oct-16 23:26 UTC. Time now 2017-Oct-17 04:20 UTC.
Position N 31°52' E 034°38'.

Length 183 m; draft 9.3 m.

Type: Ship. MMSI: 271043028.

Date/timePositionNaut miles runAvg speedWind from/ knotsBaromVisibWave heightAir tempDewpointWater temp
2017-Oct-16 23:26N 31°52' E 034°38'13 1.7
2017-Oct-16 15:23N 32°04' E 034°33'615.8
2017-Oct-16 15:00N 32°10' E 034°35'815.9
2017-Oct-16 14:31N 32°18' E 034°38'1615.6
2017-Oct-16 13:30N 32°33' E 034°43'815.5
2017-Oct-16 13:01N 32°40' E 034°45'815.5
2017-Oct-16 12:31N 32°48' E 034°47'813.5
2017-Oct-16 11:57N 32°52' E 034°54'6 0.4
2017-Oct-15 19:52N 32°50' E 035°01'3 4.7
2017-Oct-15 19:15N 32°52' E 034°59'0 0.0
2017-Oct-15 08:59N 32°52' E 034°59'612.3
2017-Oct-15 08:30N 32°53' E 034°52'  
2017-Oct-13 01:04N 36°01' E 030°31'115.1
2017-Oct-13 01:00N 36°01' E 030°30'  
2017-Oct-09 15:30N 40°56' E 028°41'612.3
2017-Oct-09 15:00N 40°51' E 028°45'815.2
2017-Oct-09 14:30N 40°47' E 028°54'815.5
2017-Oct-09 14:00N 40°45' E 029°04'815.9
2017-Oct-09 13:30N 40°44' E 029°14'813.6
2017-Oct-09 12:55N 40°44' E 029°25'512.1
2017-Oct-09 12:29N 40°45' E 029°32'613.3
2017-Oct-09 11:59N 40°45' E 029°40'4 0.3
2017-Oct-08 23:42N 40°45' E 029°35'312.2
2017-Oct-08 23:29N 40°45' E 029°31'610.5
2017-Oct-08 22:53N 40°44' E 029°23'4 9.2
2017-Oct-08 22:30N 40°43' E 029°19'816.8
2017-Oct-08 22:00N 40°41' E 029°08'917.5
2017-Oct-08 21:29N 40°39' E 028°56'13 6.9
2017-Oct-08 19:32N 40°26' E 029°01'112.5
2017-Oct-08 19:29N 40°26' E 029°02'2 0.8
2017-Oct-08 16:26N 40°25' E 029°05'0 0.0
2017-Oct-08 08:53N 40°25' E 029°05'2 0.2
2017-Oct-07 21:55N 40°27' E 029°04'  

Dump ship's entire track history